Time;durP1;ratioP1;P1;durP2;ratioP2;P2;SDS_P1;SDS_P2;PMS_P1;PMS_P2;Temp;Humidity;BMP_temperature;BMP_pressure;BME280_temperature;BME280_humidity;BME280_pressure;Samples;Min_cycle;Max_cycle;Signal;HPM_P1;HPM_P2
2021/04/27 00:00:42;;;;;;;6.47;2.13;;;;;;;6.39;58.77;101471.88;5135042;28;20028;-39
2021/04/27 00:03:07;;;;;;;3.78;2.00;;;;;;;6.41;58.96;101461.75;5134430;28;20030;-39
2021/04/27 00:05:33;;;;;;;5.30;2.17;;;;;;;6.34;58.71;101460.81;5134281;28;20027;-39
2021/04/27 00:07:58;;;;;;;4.87;2.43;;;;;;;6.28;59.24;101461.59;5134483;28;20152;-39
2021/04/27 00:10:24;;;;;;;7.38;2.20;;;;;;;6.15;59.54;101454.22;5134131;28;20038;-39
2021/04/27 00:12:50;;;;;;;4.40;2.03;;;;;;;5.94;60.35;101449.56;5133885;28;20471;-39
2021/04/27 00:15:21;;;;;;;3.43;2.00;;;;;;;6.04;60.27;101453.84;5134172;28;20524;-39
2021/04/27 00:17:47;;;;;;;7.35;2.47;;;;;;;6.07;59.72;101435.50;5134881;28;20349;-39
2021/04/27 00:20:13;;;;;;;6.97;2.03;;;;;;;5.97;60.25;101437.66;5134002;28;20029;-39
2021/04/27 00:22:39;;;;;;;4.82;2.17;;;;;;;5.99;60.16;101437.44;5134068;28;20033;-39
2021/04/27 00:25:06;;;;;;;5.10;2.23;;;;;;;5.89;60.59;101441.22;5134851;28;20110;-39
2021/04/27 00:27:31;;;;;;;2.65;1.77;;;;;;;6.01;60.19;101430.88;5134472;28;20459;-39
2021/04/27 00:29:57;;;;;;;4.00;2.20;;;;;;;6.04;59.54;101426.97;5134264;28;20031;-39
2021/04/27 00:32:22;;;;;;;5.10;2.10;;;;;;;5.97;60.27;101428.75;5134564;28;20458;-38
2021/04/27 00:34:48;;;;;;;4.97;2.27;;;;;;;5.96;60.01;101425.25;5134014;28;20245;-39
2021/04/27 00:37:13;;;;;;;4.20;2.37;;;;;;;5.89;60.40;101419.75;5135048;27;20030;-39
2021/04/27 00:39:38;;;;;;;4.90;2.17;;;;;;;5.72;60.31;101420.97;5137785;27;20031;-39
2021/04/27 00:42:04;;;;;;;5.70;2.00;;;;;;;5.64;61.46;101416.50;5137497;27;20034;-39
2021/04/27 00:44:30;;;;;;;4.15;2.50;;;;;;;5.67;60.88;101420.69;5138636;27;20413;-39
2021/04/27 00:46:56;;;;;;;6.23;2.60;;;;;;;5.65;61.60;101414.66;5137731;27;20027;-39
2021/04/27 00:49:22;;;;;;;5.07;2.10;;;;;;;5.65;60.63;101410.13;5137621;27;20172;-39
2021/04/27 00:51:47;;;;;;;5.30;1.97;;;;;;;5.72;60.62;101412.91;5137641;27;20054;-39
2021/04/27 00:54:12;;;;;;;6.13;2.60;;;;;;;5.65;60.93;101407.44;5137287;27;20399;-39
2021/04/27 00:56:38;;;;;;;4.87;2.40;;;;;;;5.61;61.11;101398.13;5138139;27;20026;-39
2021/04/27 00:59:04;;;;;;;3.88;2.30;;;;;;;5.47;61.44;101398.94;5137141;27;20030;-39
2021/04/27 01:01:30;;;;;;;4.45;2.17;;;;;;;5.49;61.56;101398.75;5137482;27;20019;-39
2021/04/27 01:03:56;;;;;;;3.95;2.22;;;;;;;5.37;62.03;101395.69;5137054;27;20067;-39
2021/04/27 01:06:21;;;;;;;4.93;2.30;;;;;;;5.34;62.24;101391.50;5136891;27;20495;-39
2021/04/27 01:09:09;;;;;;;3.93;2.30;;;;;;;5.41;61.05;101384.38;5137530;27;20027;-39
2021/04/27 01:11:41;;;;;;;5.35;2.90;;;;;;;5.37;61.57;101390.31;5137711;27;20023;-39
2021/04/27 01:14:10;;;;;;;4.55;2.90;;;;;;;5.31;62.13;101383.81;5137146;27;20038;-39
2021/04/27 01:16:57;;;;;;;5.93;2.47;;;;;;;5.23;61.86;101386.59;5137455;27;20050;-39
2021/04/27 01:19:49;;;;;;;5.53;2.50;;;;;;;5.24;62.19;101382.91;5137375;27;20026;-39
2021/04/27 01:22:19;;;;;;;4.35;2.40;;;;;;;5.02;63.10;101383.78;5136771;27;20031;-39
2021/04/27 01:24:51;;;;;;;5.70;2.85;;;;;;;4.97;63.26;101381.63;5137307;27;20084;-38
2021/04/27 01:27:17;;;;;;;3.58;2.25;;;;;;;5.00;63.17;101378.59;5137204;27;20019;-39
2021/04/27 01:29:44;;;;;;;3.30;2.50;;;;;;;4.98;62.96;101377.09;5136872;27;20495;-39
2021/04/27 01:32:10;;;;;;;4.70;2.30;;;;;;;4.89;63.46;101371.84;5137143;27;20069;-39
2021/04/27 01:34:41;;;;;;;6.60;2.77;;;;;;;4.87;63.74;101364.97;5136614;27;20414;-39
2021/04/27 01:37:09;;;;;;;3.95;2.47;;;;;;;4.82;63.47;101370.88;5137399;27;20027;-39
2021/04/27 01:39:35;;;;;;;7.63;2.80;;;;;;;4.88;63.75;101367.50;5136359;27;20023;-39
2021/04/27 01:42:05;;;;;;;6.03;2.97;;;;;;;4.83;63.41;101371.69;5135151;27;20058;-39
2021/04/27 01:44:32;;;;;;;3.97;2.58;;;;;;;4.82;63.94;101367.38;5136245;27;20471;-39
2021/04/27 01:46:58;;;;;;;3.92;2.60;;;;;;;4.70;64.35;101363.47;5137175;27;20027;-39
2021/04/27 01:49:24;;;;;;;5.32;2.97;;;;;;;4.74;64.50;101354.88;5136203;27;20068;-39
2021/04/27 01:51:50;;;;;;;;;;;;;;;4.80;63.03;101351.47;5136953;27;20084;-39
2021/04/27 01:54:16;;;;;;;5.40;2.55;;;;;;;4.73;64.01;101353.19;5136415;27;19907;-39
2021/04/27 01:56:41;;;;;;;3.97;2.47;;;;;;;4.76;63.67;101342.13;5137269;27;20345;-39
2021/04/27 01:59:06;;;;;;;4.70;2.70;;;;;;;4.89;63.67;101342.34;5136814;27;20459;-39
2021/04/27 02:01:33;;;;;;;5.40;2.43;;;;;;;4.90;63.60;101337.81;5134730;27;20035;-39
2021/04/27 02:03:59;;;;;;;4.25;2.65;;;;;;;4.85;63.06;101332.19;5136227;27;20031;-39
2021/04/27 02:06:24;;;;;;;4.95;2.80;;;;;;;4.84;63.37;101344.75;5136214;27;20126;-39
2021/04/27 02:09:24;;;;;;;4.63;2.83;;;;;;;4.78;62.90;101332.09;5136185;27;20464;-39
2021/04/27 02:11:52;;;;;;;3.33;2.47;;;;;;;4.78;64.06;101328.53;5127885;27;20049;-38
2021/04/27 02:14:21;;;;;;;5.47;2.90;;;;;;;4.80;63.27;101337.25;5136324;27;20023;-39
2021/04/27 02:17:10;;;;;;;3.25;2.60;;;;;;;4.81;63.30;101333.56;5135979;27;20114;-39
2021/04/27 02:19:36;;;;;;;4.60;2.78;;;;;;;4.81;63.33;101341.59;5135879;27;20463;-39
2021/04/27 02:22:04;;;;;;;4.38;2.83;;;;;;;4.85;63.06;101341.03;5135879;27;20034;-39
2021/04/27 02:24:32;;;;;;;7.20;2.90;;;;;;;4.81;63.60;101338.91;5136634;27;20068;-39
2021/04/27 02:26:58;;;;;;;3.75;2.28;;;;;;;4.84;63.94;101343.91;5135815;27;20027;-39
2021/04/27 02:29:24;;;;;;;6.37;3.20;;;;;;;4.81;63.33;101350.47;5136518;27;20140;-39
2021/04/27 02:31:51;;;;;;;3.97;2.47;;;;;;;4.84;63.30;101347.44;5136002;27;20245;-39
2021/04/27 02:34:23;;;;;;;5.22;2.53;;;;;;;4.75;63.23;101343.16;5135925;27;20383;-38
2021/04/27 02:36:49;;;;;;;4.18;2.63;;;;;;;4.70;63.32;101342.84;5136118;27;20030;-39
2021/04/27 02:39:15;;;;;;;6.10;3.28;;;;;;;4.54;64.00;101325.06;5135058;27;20467;-39
2021/04/27 02:41:41;;;;;;;4.93;2.83;;;;;;;4.57;63.90;101326.56;5135823;27;20023;-39
2021/04/27 02:44:09;;;;;;;3.63;2.70;;;;;;;4.44;64.56;101326.31;5135435;27;20030;-39
2021/04/27 02:46:35;;;;;;;8.82;3.22;;;;;;;4.29;64.74;101327.06;5133760;27;20076;-38
2021/04/27 02:49:00;;;;;;;5.50;2.83;;;;;;;4.25;64.68;101327.66;5135547;27;20027;-39
2021/04/27 02:51:26;;;;;;;3.27;2.70;;;;;;;4.28;64.97;101321.91;5135019;27;20031;-38
2021/04/27 02:53:51;;;;;;;4.05;2.63;;;;;;;4.32;64.78;101324.06;5134709;27;20031;-39
2021/04/27 02:56:17;;;;;;;5.63;3.00;;;;;;;4.33;64.58;101320.38;5135286;27;20068;-38
2021/04/27 02:58:42;;;;;;;5.50;2.95;;;;;;;4.28;64.94;101316.56;5135117;27;20079;-39
2021/04/27 03:01:08;;;;;;;4.20;2.60;;;;;;;4.31;64.75;101321.56;5135049;27;20034;-39
2021/04/27 03:03:34;;;;;;;8.97;3.77;;;;;;;4.23;64.84;101318.94;5135333;27;20073;-39
2021/04/27 03:05:59;;;;;;;5.43;2.83;;;;;;;4.36;65.11;101321.88;5135117;27;20047;-39
2021/04/27 03:08:24;;;;;;;4.53;3.00;;;;;;;4.33;64.94;101320.38;5133680;27;20035;-38
2021/04/27 03:10:52;;;;;;;3.87;2.77;;;;;;;4.34;64.30;101316.69;5135493;27;20027;-39
2021/04/27 03:13:17;;;;;;;5.50;3.20;;;;;;;4.30;64.46;101312.72;5134817;27;20068;-39
2021/04/27 03:15:43;;;;;;;4.67;3.07;;;;;;;4.28;64.40;101306.69;5134613;27;20468;-39
2021/04/27 03:18:09;;;;;;;4.27;2.83;;;;;;;4.31;64.42;101308.19;5134831;27;20265;-39
2021/04/27 03:20:34;;;;;;;4.28;2.95;;;;;;;4.21;64.57;101305.75;5134693;27;20023;-38
2021/04/27 03:22:59;;;;;;;4.80;2.90;;;;;;;4.13;64.85;101305.78;5134834;27;20062;-38
2021/04/27 03:25:25;;;;;;;6.03;3.13;;;;;;;3.92;66.20;101297.56;5134691;27;20027;-39
2021/04/27 03:27:50;;;;;;;4.27;3.10;;;;;;;3.89;66.34;101296.06;5134642;27;20066;-39
2021/04/27 03:30:16;;;;;;;13.70;5.33;;;;;;;3.78;66.07;101299.97;5134952;27;20035;-38
2021/04/27 03:32:41;;;;;;;6.10;3.30;;;;;;;3.86;66.56;101302.63;5134278;27;20072;-38
2021/04/27 03:35:09;;;;;;;5.40;3.53;;;;;;;3.82;65.94;101297.78;5134898;27;20084;-39
2021/04/27 03:37:35;;;;;;;4.78;3.33;;;;;;;3.71;67.09;101298.16;5134441;27;20105;-39
2021/04/27 03:40:00;;;;;;;6.80;3.72;;;;;;;3.71;66.51;101296.34;5134746;27;20027;-41
2021/04/27 03:42:26;;;;;;;4.47;3.23;;;;;;;3.74;66.23;101295.16;5134507;27;20053;-39
2021/04/27 03:44:51;;;;;;;4.43;3.27;;;;;;;3.68;66.73;101294.00;5134305;27;20027;-39
2021/04/27 03:47:17;;;;;;;6.37;3.00;;;;;;;3.75;66.46;101292.28;5134537;27;20269;-38
2021/04/27 03:49:42;;;;;;;7.82;3.03;;;;;;;3.80;65.84;101289.91;5134262;27;20038;-39
2021/04/27 03:52:08;;;;;;;9.03;3.93;;;;;;;3.77;66.21;101289.47;5134480;28;20032;-39
2021/04/27 03:54:33;;;;;;;5.97;3.30;;;;;;;3.75;66.46;101289.59;5134245;28;20035;-39
2021/04/27 03:56:59;;;;;;;4.67;3.30;;;;;;;3.74;66.14;101293.31;5134441;28;20027;-39
2021/04/27 03:59:24;;;;;;;5.10;3.25;;;;;;;3.67;66.72;101291.53;5134927;28;20028;-39
2021/04/27 04:01:50;;;;;;;4.97;3.33;;;;;;;3.52;66.61;101278.88;5134284;28;20031;-39
2021/04/27 04:04:15;;;;;;;5.63;3.60;;;;;;;3.56;66.86;101290.03;5134114;28;20020;-39
2021/04/27 04:06:40;;;;;;;6.27;3.63;;;;;;;3.49;67.65;101291.75;5134571;28;20429;-39
2021/04/27 04:09:07;;;;;;;6.47;4.10;;;;;;;3.51;67.08;101284.38;5133976;27;20066;-39
2021/04/27 04:11:33;;;;;;;6.13;3.20;;;;;;;3.47;67.54;101286.59;5135798;27;20091;-39
2021/04/27 04:13:59;;;;;;;4.85;3.38;;;;;;;3.43;67.47;101284.44;5138433;27;20029;-39
2021/04/27 04:16:24;;;;;;;6.40;3.70;;;;;;;3.46;67.39;101284.06;5138654;27;20031;-39
2021/04/27 04:18:50;;;;;;;5.10;3.30;;;;;;;3.40;67.94;101287.44;5137044;27;20070;-38
2021/04/27 04:21:15;;;;;;;6.90;3.60;;;;;;;3.26;68.29;101281.81;5139077;27;20034;-38
2021/04/27 04:23:41;;;;;;;5.03;3.83;;;;;;;3.32;67.96;101278.47;5138274;27;20051;-38
2021/04/27 04:26:07;;;;;;;5.68;3.17;;;;;;;3.35;67.99;101285.28;5138759;27;20110;-38
2021/04/27 04:28:33;;;;;;;6.97;3.50;;;;;;;3.24;68.01;101280.31;5137788;27;20455;-38
2021/04/27 04:30:58;;;;;;;6.63;3.83;;;;;;;3.21;68.95;101286.00;5138191;27;20128;-38
2021/04/27 04:33:23;;;;;;;7.20;3.87;;;;;;;3.08;68.81;101275.88;5137737;27;20042;-38
2021/04/27 04:35:48;;;;;;;4.93;3.47;;;;;;;3.19;68.80;101283.50;5137758;27;20114;-39
2021/04/27 04:38:17;;;;;;;10.23;3.83;;;;;;;3.26;68.33;101289.00;5138546;27;20019;-39
2021/04/27 04:40:42;;;;;;;5.68;3.83;;;;;;;3.17;68.64;101290.84;5138637;27;20027;-39
2021/04/27 04:43:08;;;;;;;4.83;3.43;;;;;;;3.22;67.98;101288.53;5137895;27;20138;-38
2021/04/27 04:45:33;;;;;;;8.93;4.03;;;;;;;3.33;68.14;101287.31;5137568;27;20050;-38
2021/04/27 04:47:58;;;;;;;7.87;4.33;;;;;;;3.32;67.73;101291.00;5137731;27;20079;-39
2021/04/27 04:50:24;;;;;;;6.27;4.03;;;;;;;3.36;67.64;101294.97;5137770;27;20037;-39
2021/04/27 04:52:49;;;;;;;4.33;3.63;;;;;;;3.42;67.26;101288.13;5137600;27;20027;-39
2021/04/27 04:55:15;;;;;;;6.57;4.17;;;;;;;3.49;67.88;101289.91;5137700;27;20019;-39
2021/04/27 04:57:41;;;;;;;4.97;4.15;;;;;;;3.62;67.82;101294.72;5137815;27;20102;-39
2021/04/27 05:00:09;;;;;;;4.15;3.30;;;;;;;3.71;67.08;101285.66;5137535;27;20031;-39
2021/04/27 05:02:34;;;;;;;6.38;4.22;;;;;;;3.69;66.69;101281.47;5137206;27;20023;-38
2021/04/27 05:05:00;;;;;;;7.07;3.80;;;;;;;3.79;67.31;101290.94;5138100;27;20031;-38
2021/04/27 05:07:26;;;;;;;3.63;3.20;;;;;;;3.79;66.93;101287.44;5135659;27;20047;-39
2021/04/27 05:09:51;;;;;;;;;;;;;;;3.92;66.03;101281.50;5137896;27;20035;-38
2021/04/27 05:12:17;;;;;;;7.93;3.73;;;;;;;3.79;67.84;101268.69;5136875;27;20012;-39
2021/04/27 05:14:43;;;;;;;7.40;4.30;;;;;;;3.76;67.79;101272.56;5137087;27;20026;-39
2021/04/27 05:17:10;;;;;;;7.47;4.07;;;;;;;3.85;67.82;101274.16;5136724;27;20050;-39
2021/04/27 05:19:36;;;;;;;9.48;4.10;;;;;;;3.91;67.61;101269.16;5137167;27;20528;-39
2021/04/27 05:22:04;;;;;;;9.20;5.15;;;;;;;4.03;67.61;101281.94;5136810;27;20023;-39
2021/04/27 05:24:30;;;;;;;8.77;4.20;;;;;;;4.28;66.47;101273.72;5136404;27;20110;-39
2021/04/27 05:26:57;;;;;;;7.63;4.05;;;;;;;4.52;65.79;101275.38;5137064;27;20054;-39
2021/04/27 05:29:22;;;;;;;7.28;4.05;;;;;;;4.58;64.72;101275.47;5136910;27;20027;-38
2021/04/27 05:31:49;;;;;;;5.03;3.72;;;;;;;4.64;65.54;101263.22;5137675;27;20038;-39
2021/04/27 05:34:15;;;;;;;10.52;4.38;;;;;;;4.56;66.03;101266.78;5137085;27;20055;-39
2021/04/27 05:36:41;;;;;;;4.88;3.72;;;;;;;4.78;65.35;101261.56;5136738;27;20027;-39
2021/04/27 05:39:07;;;;;;;9.15;4.30;;;;;;;4.77;65.60;101270.63;5136534;27;20015;-39
2021/04/27 05:41:32;;;;;;;6.03;4.30;;;;;;;5.05;64.50;101274.34;5137052;27;20360;-39
2021/04/27 05:43:58;;;;;;;7.70;4.10;;;;;;;5.10;64.22;101263.06;5136873;27;20261;-38
2021/04/27 05:46:23;;;;;;;5.07;4.27;;;;;;;5.09;63.90;101258.72;5136617;27;20026;-38
2021/04/27 05:48:48;;;;;;;6.10;4.17;;;;;;;5.21;63.68;101265.28;5136595;27;20087;-38
2021/04/27 05:51:13;;;;;;;7.47;4.50;;;;;;;5.39;64.75;101262.22;5136866;27;20093;-38
2021/04/27 05:53:39;;;;;;;6.67;5.03;;;;;;;5.39;63.54;101267.59;5136471;27;20459;-38
2021/04/27 05:56:04;;;;;;;6.33;4.17;;;;;;;5.59;62.74;101265.97;5136915;27;20034;-38
2021/04/27 05:58:30;;;;;;;11.13;4.57;;;;;;;5.61;62.38;101260.41;5136835;27;20027;-38
2021/04/27 06:00:55;;;;;;;6.47;4.27;;;;;;;5.84;61.70;101258.44;5136051;27;20070;-38
2021/04/27 06:03:20;;;;;;;5.60;4.40;;;;;;;6.00;61.86;101268.13;5136503;27;20027;-39
2021/04/27 06:05:45;;;;;;;9.30;4.50;;;;;;;5.84;60.71;101266.47;5136964;27;20074;-39
2021/04/27 06:08:11;;;;;;;6.70;4.23;;;;;;;5.99;60.33;101268.31;5136317;27;20512;-39
2021/04/27 06:10:36;;;;;;;7.77;4.33;;;;;;;5.93;60.55;101272.59;5136453;27;20047;-39
2021/04/27 06:13:01;;;;;;;6.83;4.40;;;;;;;5.96;60.27;101271.41;5136660;27;20034;-39
2021/04/27 06:15:27;;;;;;;5.10;4.00;;;;;;;6.21;59.92;101272.69;5136380;27;20020;-39
2021/04/27 06:17:52;;;;;;;7.35;4.40;;;;;;;6.18;58.81;101273.88;5135917;27;20034;-39
2021/04/27 06:20:18;;;;;;;6.57;4.37;;;;;;;6.28;58.32;101278.94;5135960;27;20524;-39
2021/04/27 06:22:43;;;;;;;7.83;3.90;;;;;;;6.29;58.28;101271.72;5135896;27;20471;-39
2021/04/27 06:25:10;;;;;;;7.30;4.00;;;;;;;6.28;56.99;101264.69;5136160;27;20248;-38
2021/04/27 06:27:36;;;;;;;5.97;3.95;;;;;;;6.32;57.95;101272.16;5135547;27;20156;-38
2021/04/27 06:30:04;;;;;;;8.63;4.43;;;;;;;6.37;58.34;101268.91;5136538;27;20042;-38
2021/04/27 06:32:29;;;;;;;9.85;4.00;;;;;;;6.29;57.21;101272.53;5135185;27;20035;-38
2021/04/27 06:34:54;;;;;;;7.63;3.97;;;;;;;6.39;57.08;101253.41;5134845;27;20065;-38
2021/04/27 06:37:20;;;;;;;6.33;3.63;;;;;;;6.52;57.53;101264.28;5134678;27;20125;-38
2021/04/27 06:39:46;;;;;;;5.95;4.28;;;;;;;6.62;56.96;101259.41;5135658;27;20027;-38
2021/04/27 06:42:12;;;;;;;9.25;3.80;;;;;;;6.75;55.87;101264.06;5135446;27;20455;-38
2021/04/27 06:44:37;;;;;;;7.22;4.13;;;;;;;6.70;55.29;101256.56;5136041;27;20080;-38
2021/04/27 06:47:04;;;;;;;7.20;4.30;;;;;;;6.73;55.90;101255.34;5135381;27;20034;-38
2021/04/27 06:49:29;;;;;;;8.13;3.97;;;;;;;6.88;56.63;101249.84;5135682;27;20253;-38
2021/04/27 06:51:55;;;;;;;6.93;4.10;;;;;;;6.97;55.31;101254.06;5135361;27;20019;-38
2021/04/27 06:54:20;;;;;;;7.27;3.80;;;;;;;7.26;55.84;101249.47;5135625;27;20033;-38
2021/04/27 06:56:54;;;;;;;6.40;4.05;;;;;;;7.54;54.11;101247.53;5152976;27;20349;-38
2021/04/27 06:59:21;;;;;;;7.37;3.90;;;;;;;7.72;54.29;101244.28;5152471;27;20066;-38
2021/04/27 07:01:48;;;;;;;4.15;3.30;;;;;;;7.77;52.94;101249.91;5152304;27;20034;-38
2021/04/27 07:04:13;;;;;;;4.22;3.38;;;;;;;7.81;52.32;101239.53;5152882;27;20023;-38
2021/04/27 07:06:39;;;;;;;7.70;3.47;;;;;;;7.82;52.09;101244.72;5152601;27;20038;-38
2021/04/27 07:09:04;;;;;;;5.47;3.90;;;;;;;7.89;51.49;101245.56;5151911;27;20057;-38
2021/04/27 07:11:31;;;;;;;8.37;3.90;;;;;;;8.05;50.31;101240.84;5152067;27;20459;-38
2021/04/27 07:14:00;;;;;;;5.80;3.30;;;;;;;8.03;50.58;101240.22;5151749;27;20027;-38
2021/04/27 07:16:25;;;;;;;9.45;3.80;;;;;;;8.13;50.13;101246.03;5152505;27;20348;-38
2021/04/27 07:18:51;;;;;;;7.22;3.70;;;;;;;8.32;51.32;101228.22;5152048;27;20030;-38
2021/04/27 07:21:19;;;;;;;5.60;3.73;;;;;;;8.45;50.71;101233.66;5152505;27;20035;-39
2021/04/27 07:23:45;;;;;;;5.10;3.63;;;;;;;8.48;48.65;101227.84;5151481;27;20375;-39
2021/04/27 07:26:10;;;;;;;7.43;3.13;;;;;;;8.60;48.67;101228.06;5152206;27;20083;-39
2021/04/27 07:28:35;;;;;;;6.67;3.20;;;;;;;8.60;49.25;101225.38;5152565;27;20122;-39
2021/04/27 07:31:01;;;;;;;5.50;3.17;;;;;;;8.77;49.04;101221.19;5151791;27;20066;-39
2021/04/27 07:33:26;;;;;;;7.30;3.23;;;;;;;8.90;47.79;101226.56;5152045;27;20080;-39
2021/04/27 07:35:51;;;;;;;5.20;2.77;;;;;;;9.05;47.50;101220.94;5152492;27;20027;-39
2021/04/27 07:38:17;;;;;;;5.43;2.90;;;;;;;9.16;46.76;101214.88;5151671;27;20264;-39
2021/04/27 07:40:42;;;;;;;6.17;2.97;;;;;;;9.27;46.28;101216.06;5150626;27;20531;-39
2021/04/27 07:43:08;;;;;;;5.40;2.97;;;;;;;9.33;45.40;101215.25;5151816;27;20260;-39
2021/04/27 07:45:34;;;;;;;6.00;3.33;;;;;;;9.40;46.27;101205.22;5151764;27;20035;-39
2021/04/27 07:48:05;;;;;;;3.25;2.45;;;;;;;9.58;45.73;101220.72;5151647;27;20057;-39
2021/04/27 07:50:32;;;;;;;7.15;3.38;;;;;;;9.55;44.73;101221.97;5151140;27;20026;-39
2021/04/27 07:52:57;;;;;;;6.45;3.30;;;;;;;9.60;45.39;101217.81;5151106;27;20479;-39
2021/04/27 07:55:23;;;;;;;4.73;3.07;;;;;;;9.67;45.16;101215.91;5151832;27;20061;-39
2021/04/27 07:57:49;;;;;;;4.35;2.90;;;;;;;9.82;46.62;101213.75;5151311;27;20023;-39
2021/04/27 08:00:16;;;;;;;5.50;3.45;;;;;;;9.85;45.42;101209.78;5151315;27;20065;-39
2021/04/27 08:02:42;;;;;;;;;;;;;;;9.99;46.52;101208.66;5151843;27;20075;-39
2021/04/27 08:05:08;;;;;;;4.53;3.03;;;;;;;9.92;45.12;101211.41;5150892;27;20005;-39
2021/04/27 08:07:34;;;;;;;4.65;3.03;;;;;;;10.12;45.97;101199.63;5141370;27;20019;-40
2021/04/27 08:10:00;;;;;;;7.88;3.15;;;;;;;10.01;42.55;101202.00;5136979;27;20491;-40
2021/04/27 08:12:25;;;;;;;6.75;3.30;;;;;;;10.12;45.08;101205.03;5137459;27;20023;-40
2021/04/27 08:14:51;;;;;;;4.20;2.55;;;;;;;10.17;44.29;101200.63;5137610;27;20027;-39
2021/04/27 08:17:17;;;;;;;6.40;3.50;;;;;;;10.27;44.07;101206.38;5137104;27;20459;-40
2021/04/27 08:19:43;;;;;;;5.93;3.05;;;;;;;10.38;44.82;101204.03;5136857;27;20031;-39
2021/04/27 08:22:09;;;;;;;6.97;3.45;;;;;;;10.44;43.97;101208.53;5136985;27;20019;-39
2021/04/27 08:24:35;;;;;;;5.23;3.17;;;;;;;10.57;46.15;101206.53;5137482;27;20050;-39
2021/04/27 08:27:00;;;;;;;;;;;;;;;10.74;43.91;101198.72;5137833;27;20023;-39
2021/04/27 08:29:26;;;;;;;3.72;2.60;;;;;;;10.83;43.77;101200.06;5137695;27;19941;-39
2021/04/27 08:31:52;;;;;;;4.93;3.55;;;;;;;10.90;42.42;101197.28;5137019;27;20027;-40
2021/04/27 08:34:17;;;;;;;3.97;3.10;;;;;;;10.82;41.09;101189.47;5136827;27;20057;-39
2021/04/27 08:36:43;;;;;;;5.37;3.17;;;;;;;10.91;41.15;101190.00;5137459;27;20368;-39
2021/04/27 08:39:08;;;;;;;4.95;3.20;;;;;;;10.96;41.41;101190.16;5136265;27;20024;-39
2021/04/27 08:41:36;;;;;;;4.57;2.70;;;;;;;11.09;40.63;101188.13;5137526;27;20039;-39
2021/04/27 08:44:03;;;;;;;7.63;3.25;;;;;;;11.19;40.41;101193.00;5136643;27;20379;-39
2021/04/27 08:46:28;;;;;;;5.47;2.70;;;;;;;11.14;39.35;101192.88;5136834;27;20085;-39
2021/04/27 08:48:53;;;;;;;5.13;3.13;;;;;;;11.15;39.20;101188.28;5136235;27;20063;-40
2021/04/27 08:51:21;;;;;;;4.97;3.07;;;;;;;11.34;39.00;101192.63;5136742;27;20054;-39
2021/04/27 08:53:46;;;;;;;4.35;3.00;;;;;;;11.50;39.09;101193.88;5137154;27;20102;-39
2021/04/27 08:56:12;;;;;;;6.10;3.22;;;;;;;11.41;37.88;101192.53;5137133;27;20592;-39
2021/04/27 08:58:38;;;;;;;6.40;3.00;;;;;;;11.65;40.01;101179.91;5136934;27;20057;-39
2021/04/27 09:01:03;;;;;;;7.37;2.93;;;;;;;11.81;38.22;101180.09;5135702;27;20063;-39
2021/04/27 09:03:46;;;;;;;3.00;2.47;;;;;;;12.02;39.55;101180.66;5135880;27;20308;-39
2021/04/27 09:06:19;;;;;;;8.18;3.55;;;;;;;11.98;38.03;101177.56;5136148;27;20028;-39
2021/04/27 09:08:44;;;;;;;7.13;3.10;;;;;;;12.00;36.94;101169.19;5136347;27;20460;-39
2021/04/27 09:11:31;;;;;;;4.15;3.17;;;;;;;12.17;38.03;101174.78;5136736;27;20104;-39
2021/04/27 09:14:09;;;;;;;5.70;3.50;;;;;;;12.08;36.87;101167.00;5136051;27;20019;-39
2021/04/27 09:16:34;;;;;;;5.18;3.05;;;;;;;12.26;37.23;101165.25;5136760;27;20110;-39
2021/04/27 09:19:01;;;;;;;7.40;2.78;;;;;;;12.34;34.86;101168.44;5135410;27;20120;-39
2021/04/27 09:21:36;;;;;;;5.38;3.80;;;;;;;12.57;36.21;101172.22;5136013;27;20030;-39
2021/04/27 09:24:20;;;;;;;5.63;3.00;;;;;;;12.81;37.00;101167.59;5135580;27;20034;-40
2021/04/27 09:26:52;;;;;;;8.75;3.40;;;;;;;12.86;36.35;101160.41;5136360;27;20449;-40
2021/04/27 09:29:41;;;;;;;6.45;3.78;;;;;;;12.82;34.92;101166.53;5136357;27;20031;-39
2021/04/27 09:32:07;;;;;;;8.07;3.10;;;;;;;12.84;33.87;101153.56;5136186;27;20027;-39
2021/04/27 09:34:40;;;;;;;5.05;2.75;;;;;;;12.97;34.46;101144.31;5135774;27;20451;-39
2021/04/27 09:37:09;;;;;;;5.55;2.78;;;;;;;13.12;35.17;101148.19;5135608;27;20106;-40
2021/04/27 09:39:43;;;;;;;8.90;3.65;;;;;;;13.21;33.68;101124.19;5135465;27;20024;-39
2021/04/27 09:42:15;;;;;;;5.57;2.28;;;;;;;13.31;33.81;101127.13;5135204;27;20474;-39
2021/04/27 09:44:50;;;;;;;4.82;3.13;;;;;;;13.27;33.32;101117.00;5135678;27;20034;-40
2021/04/27 09:47:23;;;;;;;7.00;2.72;;;;;;;13.33;33.43;101114.16;5135705;27;20133;-39
2021/04/27 09:49:59;;;;;;;5.00;2.70;;;;;;;13.24;33.35;101123.75;5135291;27;20118;-40
2021/04/27 09:52:25;;;;;;;5.20;3.50;;;;;;;13.26;33.31;101123.50;5135559;27;20027;-39
2021/04/27 09:55:05;;;;;;;;;;;;;;;13.48;33.57;101119.03;5135447;27;20047;-40
2021/04/27 09:57:37;;;;;;;10.25;4.75;;;;;;;13.40;31.92;101114.81;5136002;27;19911;-40
2021/04/27 10:00:32;;;;;;;4.55;2.80;;;;;;;13.62;33.42;101103.28;5135064;27;20038;-39
2021/04/27 10:03:08;;;;;;;4.15;2.92;;;;;;;13.75;32.22;101102.13;5135354;27;20030;-39
2021/04/27 10:05:36;;;;;;;11.75;3.35;;;;;;;13.81;30.85;101106.56;5135339;27;20028;-40
2021/04/27 10:08:02;;;;;;;6.47;2.83;;;;;;;13.90;31.70;101105.91;5135238;27;20027;-39
2021/04/27 10:10:32;;;;;;;;;;;;;;;13.89;29.94;101098.84;5136252;27;20054;-40
2021/04/27 10:13:00;;;;;;;6.57;3.13;;;;;;;13.93;31.72;101107.31;5135419;27;20002;-39
2021/04/27 10:15:26;;;;;;;5.18;3.20;;;;;;;14.11;31.00;101088.03;5134827;27;20042;-40
2021/04/27 10:17:52;;;;;;;4.88;2.78;;;;;;;14.28;31.56;101089.91;5134499;27;20019;-39
2021/04/27 10:20:17;;;;;;;5.43;3.13;;;;;;;14.48;31.47;101095.69;5135063;27;20034;-40
2021/04/27 10:22:47;;;;;;;5.90;2.97;;;;;;;14.27;31.33;101088.28;5134737;27;20024;-40
2021/04/27 10:25:33;;;;;;;4.28;2.47;;;;;;;14.56;31.16;101081.66;5135512;27;20028;-40
2021/04/27 10:28:01;;;;;;;4.55;2.92;;;;;;;14.75;30.99;101079.44;5134491;27;20023;-39
2021/04/27 10:30:30;;;;;;;5.55;3.10;;;;;;;14.74;31.23;101072.38;5134988;27;20042;-39
2021/04/27 10:33:01;;;;;;;5.60;2.80;;;;;;;14.71;30.72;101080.22;5135381;27;20023;-40
2021/04/27 10:35:31;;;;;;;5.10;3.08;;;;;;;14.62;29.61;101083.34;5134446;27;20419;-40
2021/04/27 10:37:59;;;;;;;6.07;3.22;;;;;;;14.53;32.41;101068.53;5134319;27;20031;-40
2021/04/27 10:41:01;;;;;;;6.50;2.67;;;;;;;14.82;30.48;101074.63;5134730;27;20038;-40
2021/04/27 10:43:27;;;;;;;5.10;3.33;;;;;;;14.82;31.52;101068.34;5127265;27;20066;-40
2021/04/27 10:45:56;;;;;;;5.85;3.75;;;;;;;14.67;28.38;101071.72;5135028;27;20073;-40
2021/04/27 10:48:39;;;;;;;8.25;3.97;;;;;;;14.79;30.66;101069.69;5134740;27;20023;-40
2021/04/27 10:51:20;;;;;;;4.80;2.85;;;;;;;15.05;30.79;101072.72;5134327;27;20078;-40
2021/04/27 10:54:04;;;;;;;4.95;3.13;;;;;;;14.70;28.15;101063.06;5134282;28;20092;-40
2021/04/27 10:56:40;;;;;;;9.05;3.25;;;;;;;14.54;29.79;101061.19;5134098;28;20055;-40
2021/04/27 10:59:09;;;;;;;4.43;2.90;;;;;;;14.72;28.75;101065.50;5133936;28;20068;-40
2021/04/27 11:01:35;;;;;;;6.40;3.28;;;;;;;14.42;28.51;101056.66;5133977;28;20513;-39
2021/04/27 11:04:01;;;;;;;6.68;3.20;;;;;;;14.60;28.47;101054.75;5133992;28;20110;-40
2021/04/27 11:06:26;;;;;;;4.68;3.08;;;;;;;14.74;29.23;101038.84;5133949;28;20027;-40
2021/04/27 11:08:58;;;;;;;8.15;3.47;;;;;;;15.01;29.88;101049.78;5134400;28;20035;-40
2021/04/27 11:11:34;;;;;;;9.02;4.43;;;;;;;15.14;28.01;101042.06;5135003;28;20080;-40
2021/04/27 11:14:11;;;;;;;4.90;2.95;;;;;;;15.11;29.31;101049.91;5134200;28;20027;-40
2021/04/27 11:16:38;;;;;;;5.97;2.90;;;;;;;15.14;29.74;101046.69;5134226;28;20031;-40
2021/04/27 11:19:18;;;;;;;4.43;2.65;;;;;;;14.78;28.09;101037.28;5133776;28;20481;-40
2021/04/27 11:21:48;;;;;;;3.35;2.58;;;;;;;15.10;28.72;101032.75;5134371;28;20072;-40
2021/04/27 11:24:33;;;;;;;4.80;2.65;;;;;;;15.26;29.16;101031.00;5134007;28;20385;-40
2021/04/27 11:27:00;;;;;;;5.43;3.60;;;;;;;15.39;27.21;101036.03;5133934;28;20042;-40
2021/04/27 11:29:34;;;;;;;3.88;3.05;;;;;;;15.59;29.03;101040.84;5133670;28;20027;-40
2021/04/27 11:32:11;;;;;;;5.10;3.42;;;;;;;15.43;27.41;101037.16;5134295;28;20027;-40
2021/04/27 11:35:00;;;;;;;3.97;3.17;;;;;;;15.39;28.13;101029.75;5134355;28;20515;-40